Time;durP1;ratioP1;P1;durP2;ratioP2;P2;SDS_P1;SDS_P2;PMS_P1;PMS_P2;Temp;Humidity;BMP_temperature;BMP_pressure;BME280_temperature;BME280_humidity;BME280_pressure;Samples;Min_cycle;Max_cycle;Signal;HPM_P1;HPM_P2
2021/08/06 00:02:06;;;;;;;0.60;0.60;;;16.60;99.90;;;;;;4975460;28;20034;-75
2021/08/06 00:04:34;;;;;;;1.38;0.70;;;16.60;99.90;;;;;;4992849;28;20037;-75
2021/08/06 00:06:59;;;;;;;0.75;0.65;;;16.60;99.90;;;;;;4992357;28;20037;-75
2021/08/06 00:09:25;;;;;;;0.80;0.80;;;16.60;99.90;;;;;;4992867;28;20101;-75
2021/08/06 00:11:57;;;;;;;0.60;0.60;;;16.60;99.90;;;;;;4992272;28;20118;-75
2021/08/06 00:14:23;;;;;;;1.13;0.73;;;16.60;99.90;;;;;;4986825;28;20026;-77
2021/08/06 00:16:48;;;;;;;0.77;0.77;;;16.60;99.90;;;;;;4976046;28;20445;-75
2021/08/06 00:19:14;;;;;;;1.52;0.60;;;16.60;99.90;;;;;;5000344;28;20034;-75
2021/08/06 00:21:40;;;;;;;4.80;0.95;;;16.60;99.90;;;;;;5002150;28;20031;-74
2021/08/06 00:24:05;;;;;;;0.90;0.73;;;16.70;99.90;;;;;;5001036;28;20389;-75
2021/08/06 00:26:31;;;;;;;0.65;0.60;;;16.70;99.90;;;;;;5001834;28;20030;-74
2021/08/06 00:28:56;;;;;;;0.85;0.75;;;16.70;99.90;;;;;;5004398;28;20045;-73
2021/08/06 00:31:22;;;;;;;0.65;0.63;;;16.70;99.90;;;;;;5018820;28;20026;-74
2021/08/06 00:33:47;;;;;;;0.50;0.50;;;16.70;99.90;;;;;;5015436;28;20038;-74
2021/08/06 00:36:13;;;;;;;1.42;0.98;;;16.70;99.90;;;;;;4998921;28;20057;-74
2021/08/06 00:38:39;;;;;;;0.98;0.70;;;16.70;99.90;;;;;;4981516;28;20027;-75
2021/08/06 00:41:04;;;;;;;0.50;0.40;;;16.70;99.90;;;;;;4999769;28;20073;-76
2021/08/06 00:43:30;;;;;;;0.70;0.65;;;16.70;99.90;;;;;;4999300;28;20019;-76
2021/08/06 00:45:58;;;;;;;0.55;0.55;;;16.60;99.90;;;;;;4998960;28;20121;-75
2021/08/06 00:48:25;;;;;;;0.60;0.55;;;16.60;99.90;;;;;;4980937;28;20027;-75
2021/08/06 00:50:51;;;;;;;1.00;0.70;;;16.60;99.90;;;;;;4998661;28;20088;-74
2021/08/06 00:53:17;;;;;;;1.15;0.80;;;16.60;99.90;;;;;;5000661;28;20031;-74
2021/08/06 00:55:43;;;;;;;1.05;0.80;;;16.60;99.90;;;;;;5001558;28;20049;-75
2021/08/06 00:58:12;;;;;;;0.70;0.70;;;16.60;99.90;;;;;;4999007;28;20398;-75
2021/08/06 01:00:37;;;;;;;1.02;0.70;;;16.50;99.90;;;;;;4998362;28;20038;-76
2021/08/06 01:03:29;;;;;;;0.90;0.75;;;16.60;99.90;;;;;;4991060;28;20061;-74
2021/08/06 01:06:10;;;;;;;0.73;0.57;;;16.50;99.90;;;;;;5007447;28;20030;-76
2021/08/06 01:08:45;;;;;;;1.95;0.70;;;16.50;99.90;;;;;;4998689;28;20018;-74
2021/08/06 01:11:14;;;;;;;0.98;0.50;;;16.40;99.90;;;;;;4998184;28;20552;-74
2021/08/06 01:13:44;;;;;;;0.80;0.68;;;16.40;99.90;;;;;;4980378;28;20493;-75
2021/08/06 01:16:12;;;;;;;2.67;0.60;;;16.50;99.90;;;;;;4998125;28;20117;-74
2021/08/06 01:18:42;;;;;;;0.88;0.50;;;16.40;99.90;;;;;;4998091;28;20034;-75
2021/08/06 01:21:14;;;;;;;1.95;0.90;;;16.40;99.90;;;;;;4998073;28;20508;-75
2021/08/06 01:23:40;;;;;;;1.15;0.70;;;16.40;99.90;;;;;;4980748;28;20034;-74
2021/08/06 01:26:17;;;;;;;0.77;0.50;;;16.40;99.90;;;;;;4997775;28;20026;-76
2021/08/06 01:28:46;;;;;;;3.03;0.75;;;16.40;99.90;;;;;;5002309;28;20117;-76
2021/08/06 01:31:14;;;;;;;0.80;0.60;;;16.40;99.90;;;;;;4999427;28;20022;-75
2021/08/06 01:33:40;;;;;;;0.60;0.60;;;16.40;99.90;;;;;;4994888;28;20042;-75
2021/08/06 01:36:06;;;;;;;0.50;0.50;;;16.40;99.90;;;;;;4998137;28;20033;-74
2021/08/06 01:38:32;;;;;;;3.38;0.90;;;16.30;99.90;;;;;;4992439;28;20510;-75
2021/08/06 01:41:25;;;;;;;0.60;0.60;;;16.40;99.90;;;;;;4997356;28;20026;-75
2021/08/06 01:44:15;;;;;;;0.60;0.60;;;16.40;99.90;;;;;;4996533;28;20029;-76
2021/08/06 01:46:47;;;;;;;0.70;0.50;;;16.40;99.90;;;;;;4988139;28;20030;-76
2021/08/06 01:49:31;;;;;;;2.00;0.55;;;16.50;99.90;;;;;;4993551;28;20388;-76
2021/08/06 01:52:11;;;;;;;0.57;0.55;;;16.50;99.90;;;;;;4995610;28;20129;-76
2021/08/06 01:54:39;;;;;;;0.77;0.70;;;16.60;99.90;;;;;;4995217;28;20031;-77
2021/08/06 01:57:06;;;;;;;1.00;0.70;;;16.50;99.90;;;;;;4995114;28;20038;-75
2021/08/06 01:59:32;;;;;;;1.33;0.70;;;16.60;99.90;;;;;;4995119;28;20030;-76
2021/08/06 02:01:58;;;;;;;0.93;0.90;;;16.60;99.90;;;;;;4977529;28;20022;-76
2021/08/06 02:04:27;;;;;;;0.70;0.70;;;16.60;99.90;;;;;;4994729;28;20445;-76
2021/08/06 02:06:53;;;;;;;1.30;0.90;;;16.60;99.90;;;;;;5002216;28;20033;-75
2021/08/06 02:09:20;;;;;;;1.38;0.95;;;16.70;99.90;;;;;;5005076;28;20048;-75
2021/08/06 02:11:46;;;;;;;2.35;1.90;;;16.70;99.90;;;;;;4980850;28;20026;-76
2021/08/06 02:14:14;;;;;;;1.15;0.82;;;16.70;99.90;;;;;;4977689;28;20041;-76
2021/08/06 02:16:42;;;;;;;1.05;0.70;;;16.70;99.90;;;;;;5007546;28;20038;-73
2021/08/06 02:19:09;;;;;;;0.63;0.63;;;16.70;99.90;;;;;;5017514;28;20045;-73
2021/08/06 02:21:36;;;;;;;0.70;0.68;;;16.70;99.90;;;;;;5017994;28;20018;-73
2021/08/06 02:24:09;;;;;;;2.05;0.65;;;16.80;99.90;;;;;;4986131;28;20030;-75
2021/08/06 02:26:36;;;;;;;2.58;0.70;;;16.80;99.90;;;;;;5016069;28;20018;-73
2021/08/06 02:29:05;;;;;;;1.42;1.02;;;16.80;99.90;;;;;;5001970;28;20402;-75
2021/08/06 02:31:32;;;;;;;0.70;0.70;;;16.90;99.90;;;;;;4977812;28;21618;-76
2021/08/06 02:33:58;;;;;;;1.30;0.75;;;16.90;99.90;;;;;;4994444;28;20023;-75
2021/08/06 02:36:24;;;;;;;0.95;0.90;;;16.90;99.90;;;;;;4995054;28;20417;-75
2021/08/06 02:38:50;;;;;;;2.65;0.85;;;16.90;99.90;;;;;;4996076;28;20073;-74
2021/08/06 02:41:15;;;;;;;1.95;1.25;;;17.00;99.90;;;;;;4978104;28;20525;-75
2021/08/06 02:43:43;;;;;;;0.98;0.88;;;17.00;99.90;;;;;;4995742;28;20061;-74
2021/08/06 02:46:09;;;;;;;0.70;0.70;;;17.00;99.90;;;;;;4998821;28;20081;-75
2021/08/06 02:48:35;;;;;;;1.42;0.90;;;17.00;99.90;;;;;;5002424;28;20054;-75
2021/08/06 02:51:00;;;;;;;0.80;0.80;;;17.10;99.90;;;;;;4996234;28;20042;-75
2021/08/06 02:53:26;;;;;;;1.85;1.00;;;17.10;99.90;;;;;;4997380;28;20030;-75
2021/08/06 02:55:51;;;;;;;1.13;0.77;;;17.10;99.90;;;;;;5006500;28;20034;-76
2021/08/06 02:58:17;;;;;;;2.25;0.90;;;17.10;99.90;;;;;;5001424;28;20034;-76
2021/08/06 03:00:43;;;;;;;5.18;0.80;;;17.10;99.90;;;;;;4993960;28;20420;-76
2021/08/06 03:03:08;;;;;;;0.98;0.70;;;17.20;99.90;;;;;;4995170;28;20081;-74
2021/08/06 03:05:34;;;;;;;3.40;1.08;;;17.20;99.90;;;;;;4994662;28;20026;-75
2021/08/06 03:07:59;;;;;;;2.25;0.80;;;17.20;99.90;;;;;;4975840;28;20662;-75
2021/08/06 03:10:25;;;;;;;5.30;1.10;;;17.20;99.90;;;;;;4993476;28;20035;-76
2021/08/06 03:12:51;;;;;;;2.05;0.90;;;17.10;99.90;;;;;;4972872;28;20027;-75
2021/08/06 03:15:18;;;;;;;0.95;0.88;;;17.10;99.90;;;;;;4992130;28;20034;-75
2021/08/06 03:17:44;;;;;;;2.35;0.80;;;17.10;99.90;;;;;;4976626;28;20022;-76
2021/08/06 03:20:11;;;;;;;1.25;0.68;;;17.10;99.90;;;;;;4994111;28;20022;-76
2021/08/06 03:22:38;;;;;;;1.92;0.90;;;17.20;99.90;;;;;;4993668;28;20130;-74
2021/08/06 03:25:09;;;;;;;2.25;0.82;;;17.10;99.90;;;;;;4993650;28;20034;-75
2021/08/06 03:27:35;;;;;;;0.70;0.70;;;17.20;99.90;;;;;;4993727;28;20041;-76
2021/08/06 03:30:02;;;;;;;2.70;1.00;;;17.20;99.90;;;;;;4975547;28;20048;-75
2021/08/06 03:32:27;;;;;;;0.80;0.80;;;17.20;99.90;;;;;;5000866;28;20030;-72
2021/08/06 03:34:53;;;;;;;4.13;0.90;;;17.20;99.90;;;;;;5017471;28;20045;-74
2021/08/06 03:37:19;;;;;;;1.50;1.10;;;17.20;99.90;;;;;;4982141;28;20042;-77
2021/08/06 03:39:45;;;;;;;2.28;1.27;;;17.20;99.90;;;;;;4994251;28;20022;-75
2021/08/06 03:42:10;;;;;;;2.20;1.05;;;17.20;99.90;;;;;;4993325;28;20026;-76
2021/08/06 03:44:36;;;;;;;0.80;0.70;;;17.30;99.90;;;;;;4992877;28;20081;-76
2021/08/06 03:47:03;;;;;;;0.80;0.80;;;17.30;99.90;;;;;;4992816;28;20062;-76
2021/08/06 03:49:28;;;;;;;1.90;0.82;;;17.30;99.90;;;;;;4993333;28;20027;-76
2021/08/06 03:51:54;;;;;;;1.30;0.90;;;17.30;99.90;;;;;;4975807;28;20109;-76
2021/08/06 03:54:19;;;;;;;1.00;0.90;;;17.30;99.90;;;;;;4992839;28;20064;-74
2021/08/06 03:56:45;;;;;;;1.45;1.15;;;17.20;99.90;;;;;;4992901;28;20030;-76
2021/08/06 03:59:10;;;;;;;1.88;0.93;;;17.30;99.90;;;;;;4995089;28;20030;-75
2021/08/06 04:01:36;;;;;;;3.47;1.20;;;17.30;99.90;;;;;;4995556;28;20105;-75
2021/08/06 04:04:02;;;;;;;1.85;1.10;;;17.20;99.90;;;;;;4992798;28;20073;-74
2021/08/06 04:06:27;;;;;;;0.90;0.80;;;17.20;99.90;;;;;;4993477;28;20037;-76
2021/08/06 04:08:53;;;;;;;1.70;1.10;;;17.30;99.90;;;;;;4993226;28;20026;-75
2021/08/06 04:11:20;;;;;;;1.92;1.17;;;17.20;99.90;;;;;;4993281;28;20030;-76
2021/08/06 04:13:46;;;;;;;1.15;1.05;;;17.20;99.90;;;;;;4975648;28;20038;-75
2021/08/06 04:16:12;;;;;;;3.35;1.15;;;17.20;99.90;;;;;;4993301;28;20038;-75
2021/08/06 04:18:37;;;;;;;1.08;0.98;;;17.20;99.90;;;;;;4992934;28;20036;-76
2021/08/06 04:21:03;;;;;;;1.85;1.00;;;17.20;99.90;;;;;;4992526;28;20040;-76
2021/08/06 04:23:28;;;;;;;1.35;0.98;;;17.20;99.90;;;;;;4992866;28;20098;-75
2021/08/06 04:25:54;;;;;;;2.20;1.05;;;17.30;99.90;;;;;;4992974;28;20057;-77
2021/08/06 04:28:20;;;;;;;1.45;1.20;;;17.30;99.90;;;;;;4982699;28;20049;-76
2021/08/06 04:30:45;;;;;;;1.15;1.00;;;17.30;99.90;;;;;;4992519;28;20031;-76
2021/08/06 04:33:11;;;;;;;1.20;1.10;;;17.20;99.90;;;;;;4992416;28;20031;-74
2021/08/06 04:35:36;;;;;;;1.80;1.20;;;17.20;99.90;;;;;;4993070;28;20026;-73
2021/08/06 04:38:02;;;;;;;1.60;1.33;;;17.20;99.90;;;;;;4992463;28;20027;-76
2021/08/06 04:40:28;;;;;;;3.00;1.33;;;17.00;99.90;;;;;;4992366;28;20023;-77
2021/08/06 04:42:54;;;;;;;2.03;1.58;;;16.90;99.90;;;;;;4975226;28;20091;-76
2021/08/06 04:45:20;;;;;;;1.92;1.45;;;16.90;99.90;;;;;;4991623;28;20474;-76
2021/08/06 04:47:47;;;;;;;1.48;1.33;;;16.70;99.90;;;;;;4992409;28;20534;-75
2021/08/06 04:50:15;;;;;;;1.30;1.20;;;16.70;99.90;;;;;;4974563;28;20100;-74
2021/08/06 04:52:41;;;;;;;2.05;1.20;;;16.60;99.90;;;;;;4999694;28;20030;-75
2021/08/06 04:55:07;;;;;;;0.90;0.90;;;16.50;99.90;;;;;;4993891;28;20528;-75
2021/08/06 04:57:33;;;;;;;1.25;1.10;;;16.60;99.90;;;;;;5001240;28;20027;-74
2021/08/06 04:59:58;;;;;;;1.45;0.98;;;16.50;99.90;;;;;;5001718;28;20054;-74
2021/08/06 05:02:24;;;;;;;2.03;1.23;;;16.50;99.90;;;;;;5003974;28;20034;-75
2021/08/06 05:04:50;;;;;;;1.23;1.10;;;16.40;99.90;;;;;;4994262;28;20065;-74
2021/08/06 05:07:17;;;;;;;3.00;1.30;;;16.40;99.90;;;;;;4994408;28;20034;-75
2021/08/06 05:09:44;;;;;;;1.60;1.35;;;16.40;99.90;;;;;;4996648;28;20506;-76
2021/08/06 05:12:10;;;;;;;1.65;1.50;;;16.40;99.90;;;;;;4997116;28;20402;-75
2021/08/06 05:14:36;;;;;;;3.65;1.65;;;16.40;99.90;;;;;;4994367;28;20030;-74
2021/08/06 05:17:01;;;;;;;1.38;1.27;;;16.40;99.90;;;;;;4996195;28;20039;-75
2021/08/06 05:19:27;;;;;;;4.15;1.70;;;16.40;99.90;;;;;;4996299;28;20026;-75
2021/08/06 05:21:53;;;;;;;4.03;2.15;;;16.30;99.90;;;;;;4979124;28;20026;-75
2021/08/06 05:24:18;;;;;;;1.90;1.70;;;16.30;99.90;;;;;;4996744;28;20105;-75
2021/08/06 05:26:44;;;;;;;1.70;1.33;;;16.30;99.90;;;;;;4995928;28;20061;-75
2021/08/06 05:29:09;;;;;;;1.42;1.30;;;16.30;99.90;;;;;;4995926;28;20045;-77
2021/08/06 05:31:35;;;;;;;5.18;1.60;;;16.30;99.90;;;;;;4995951;28;20034;-75
2021/08/06 05:34:01;;;;;;;3.78;1.60;;;16.30;99.90;;;;;;4996246;28;20510;-75
2021/08/06 05:36:26;;;;;;;3.95;1.60;;;16.30;99.90;;;;;;4995820;28;20102;-75
2021/08/06 05:38:52;;;;;;;1.92;1.40;;;16.40;99.90;;;;;;4977836;28;20022;-74
2021/08/06 05:41:18;;;;;;;1.40;1.30;;;16.40;99.90;;;;;;4995511;28;20471;-76
2021/08/06 05:43:44;;;;;;;4.13;1.40;;;16.40;99.90;;;;;;4995888;28;20022;-75
2021/08/06 05:46:10;;;;;;;2.03;1.40;;;16.50;99.90;;;;;;4978605;28;20402;-76
2021/08/06 05:48:35;;;;;;;3.45;1.35;;;16.50;99.90;;;;;;4995614;28;20030;-75
2021/08/06 05:51:01;;;;;;;4.78;1.40;;;16.50;99.90;;;;;;4996285;28;20514;-75
2021/08/06 05:53:27;;;;;;;1.50;1.40;;;16.50;99.90;;;;;;4995841;28;20030;-76
2021/08/06 05:55:52;;;;;;;1.35;1.25;;;16.50;99.90;;;;;;4995493;28;20034;-74
2021/08/06 05:58:18;;;;;;;1.48;0.98;;;16.50;99.90;;;;;;4996574;28;20505;-75
2021/08/06 06:00:44;;;;;;;1.73;1.20;;;16.50;99.90;;;;;;4999372;28;20511;-75
2021/08/06 06:03:09;;;;;;;2.13;1.27;;;16.50;99.90;;;;;;4979955;28;20085;-75
2021/08/06 06:05:35;;;;;;;1.70;1.30;;;16.60;99.90;;;;;;4996672;28;20026;-76
2021/08/06 06:08:00;;;;;;;2.70;1.20;;;16.70;99.90;;;;;;4979038;28;20239;-77
2021/08/06 06:10:26;;;;;;;1.73;1.33;;;16.80;99.90;;;;;;4998307;28;20041;-75
2021/08/06 06:12:52;;;;;;;1.77;1.45;;;16.90;99.90;;;;;;4996240;28;20022;-75
2021/08/06 06:15:18;;;;;;;3.40;1.60;;;17.00;99.90;;;;;;4979760;28;20061;-76
2021/08/06 06:17:45;;;;;;;2.95;1.38;;;17.10;99.90;;;;;;5003024;28;20054;-76
2021/08/06 06:20:11;;;;;;;2.45;1.20;;;17.10;99.90;;;;;;5000290;28;20037;-75
2021/08/06 06:22:36;;;;;;;1.70;1.52;;;17.20;99.90;;;;;;4998980;28;20029;-75
2021/08/06 06:25:03;;;;;;;1.70;1.27;;;17.20;99.90;;;;;;4998925;28;20097;-75
2021/08/06 06:27:28;;;;;;;2.53;1.55;;;17.30;99.90;;;;;;4995719;28;20034;-75
2021/08/06 06:29:54;;;;;;;2.30;1.20;;;17.40;99.90;;;;;;4994711;28;20026;-75
2021/08/06 06:32:19;;;;;;;3.05;1.25;;;17.40;99.90;;;;;;4994864;28;20041;-75
2021/08/06 06:34:45;;;;;;;11.73;1.60;;;17.30;99.90;;;;;;4995255;28;20030;-75
2021/08/06 06:37:11;;;;;;;1.48;1.38;;;17.30;99.90;;;;;;5008045;28;20018;-74
2021/08/06 06:39:36;;;;;;;4.03;1.40;;;17.50;99.90;;;;;;5015959;28;20081;-76
2021/08/06 06:42:02;;;;;;;1.75;1.20;;;17.60;99.90;;;;;;5001455;28;20093;-76
2021/08/06 06:44:27;;;;;;;3.47;1.40;;;17.60;99.90;;;;;;4995021;28;20022;-76
2021/08/06 06:46:53;;;;;;;2.40;1.20;;;17.70;99.90;;;;;;4996260;28;20049;-76
2021/08/06 06:49:19;;;;;;;1.33;1.20;;;17.70;99.90;;;;;;4979022;28;20037;-75
2021/08/06 06:51:44;;;;;;;2.17;1.35;;;17.70;99.90;;;;;;4997165;28;20050;-74
2021/08/06 06:54:10;;;;;;;2.58;1.25;;;17.80;99.90;;;;;;4997745;28;20031;-76
2021/08/06 06:56:35;;;;;;;2.65;1.35;;;17.90;99.90;;;;;;4997502;28;20038;-75
2021/08/06 06:59:01;;;;;;;1.65;1.30;;;17.90;99.90;;;;;;4996834;28;20026;-76
2021/08/06 07:01:27;;;;;;;1.95;1.20;;;18.10;99.90;;;;;;4996464;28;20077;-75
2021/08/06 07:03:52;;;;;;;1.45;1.20;;;18.20;99.90;;;;;;4996957;28;20019;-74
2021/08/06 07:06:19;;;;;;;1.40;1.25;;;18.40;99.90;;;;;;4995654;28;20517;-75
2021/08/06 07:08:45;;;;;;;2.60;1.02;;;18.60;99.90;;;;;;4994837;28;20030;-75
2021/08/06 07:11:11;;;;;;;2.20;1.20;;;18.80;99.90;;;;;;5001102;28;20026;-75
2021/08/06 07:13:36;;;;;;;1.90;1.20;;;19.10;99.90;;;;;;4976838;28;20060;-74
2021/08/06 07:16:02;;;;;;;1.45;1.10;;;19.00;99.90;;;;;;4976889;28;20034;-74
2021/08/06 07:18:28;;;;;;;3.00;1.00;;;19.00;99.90;;;;;;4994781;28;20083;-73
2021/08/06 07:20:54;;;;;;;1.80;0.98;;;18.90;99.90;;;;;;4986506;28;20093;-74
2021/08/06 07:23:19;;;;;;;1.80;1.23;;;19.00;99.90;;;;;;4994867;28;20063;-75
2021/08/06 07:25:45;;;;;;;1.00;0.90;;;18.90;99.90;;;;;;4993429;28;20089;-74
2021/08/06 07:28:11;;;;;;;3.00;1.27;;;18.90;99.90;;;;;;4993199;28;20065;-74
2021/08/06 07:30:37;;;;;;;1.17;1.02;;;18.90;99.90;;;;;;4994137;28;20079;-73
2021/08/06 07:33:04;;;;;;;1.10;1.00;;;18.90;99.90;;;;;;4995996;28;20030;-74
2021/08/06 07:35:32;;;;;;;4.95;1.27;;;18.90;99.90;;;;;;4997450;28;20498;-72
2021/08/06 07:37:59;;;;;;;1.40;1.05;;;18.90;99.90;;;;;;4996829;28;20018;-73
2021/08/06 07:40:24;;;;;;;1.23;1.05;;;19.00;99.90;;;;;;4994176;28;20026;-73
2021/08/06 07:42:52;;;;;;;1.83;0.80;;;19.00;99.90;;;;;;4993426;28;20036;-75
2021/08/06 07:45:18;;;;;;;1.45;0.90;;;19.00;99.90;;;;;;5000246;28;20062;-73
2021/08/06 07:47:44;;;;;;;1.30;1.00;;;19.10;99.90;;;;;;4987686;28;20582;-73
2021/08/06 07:50:10;;;;;;;2.95;0.85;;;19.10;99.90;;;;;;4993571;28;20031;-76
2021/08/06 07:52:36;;;;;;;1.25;1.00;;;19.00;99.90;;;;;;4993754;28;20036;-75
2021/08/06 07:55:02;;;;;;;1.05;0.90;;;19.00;99.90;;;;;;4993297;28;20030;-73
2021/08/06 07:57:28;;;;;;;4.82;1.13;;;18.90;99.90;;;;;;4992943;28;20058;-73
2021/08/06 07:59:54;;;;;;;3.17;0.93;;;18.60;99.90;;;;;;4993146;28;20050;-75
2021/08/06 08:02:21;;;;;;;2.00;0.90;;;18.60;99.90;;;;;;4976003;28;20133;-74
2021/08/06 08:04:48;;;;;;;2.33;1.30;;;18.60;99.90;;;;;;4975640;28;20026;-74
2021/08/06 08:07:14;;;;;;;1.58;1.00;;;18.40;99.90;;;;;;4993600;28;20034;-73
2021/08/06 08:09:39;;;;;;;1.02;0.80;;;18.40;99.90;;;;;;4993700;28;20031;-74
2021/08/06 08:12:05;;;;;;;1.13;0.80;;;18.30;99.90;;;;;;4975241;28;20054;-74
2021/08/06 08:14:31;;;;;;;1.45;0.90;;;18.20;99.90;;;;;;4995715;28;20034;-73
2021/08/06 08:16:56;;;;;;;1.48;0.70;;;18.20;99.90;;;;;;4995674;28;20026;-73
2021/08/06 08:19:22;;;;;;;1.10;1.00;;;18.30;99.90;;;;;;4992483;28;20406;-73
2021/08/06 08:21:48;;;;;;;0.90;0.63;;;18.50;99.90;;;;;;4993713;28;20022;-74
2021/08/06 08:24:14;;;;;;;0.60;0.60;;;18.70;99.90;;;;;;4993265;28;20030;-74
2021/08/06 08:26:39;;;;;;;3.42;0.60;;;18.70;99.90;;;;;;4976466;28;20026;-75
2021/08/06 08:29:05;;;;;;;1.05;0.77;;;18.80;99.90;;;;;;4992955;28;20105;-74
2021/08/06 08:31:31;;;;;;;0.70;0.60;;;18.90;99.90;;;;;;4992094;28;20022;-74
2021/08/06 08:33:56;;;;;;;0.80;0.80;;;19.00;99.90;;;;;;4993132;28;20026;-75
2021/08/06 08:36:22;;;;;;;2.10;0.75;;;19.20;99.90;;;;;;4992504;28;20505;-75
2021/08/06 08:38:48;;;;;;;2.65;0.65;;;19.60;99.90;;;;;;4992757;28;20034;-75
2021/08/06 08:41:14;;;;;;;0.95;0.50;;;19.80;99.90;;;;;;4976125;28;20549;-74
2021/08/06 08:43:42;;;;;;;0.45;0.45;;;19.80;99.90;;;;;;4997293;28;20141;-74
2021/08/06 08:46:09;;;;;;;1.08;0.57;;;20.00;99.90;;;;;;4997895;28;20386;-74
2021/08/06 08:48:35;;;;;;;1.23;0.70;;;20.20;99.90;;;;;;4997437;28;20607;-74
2021/08/06 08:51:03;;;;;;;3.60;0.40;;;20.30;99.90;;;;;;4996530;28;20101;-73
2021/08/06 08:53:29;;;;;;;1.80;0.40;;;20.30;99.90;;;;;;4989991;28;20022;-73
2021/08/06 08:55:56;;;;;;;1.05;0.50;;;20.50;99.90;;;;;;4996631;28;20030;-74
2021/08/06 08:58:22;;;;;;;0.40;0.40;;;20.50;99.90;;;;;;4979407;28;20058;-74
2021/08/06 09:00:48;;;;;;;0.75;0.60;;;20.60;99.90;;;;;;4979758;28;20041;-73
2021/08/06 09:03:40;;;;;;;0.50;0.40;;;20.80;99.90;;;;;;4997164;28;20061;-76
2021/08/06 09:06:07;;;;;;;1.23;0.50;;;21.20;99.90;;;;;;4996930;28;20038;-73
2021/08/06 09:08:33;;;;;;;0.70;0.50;;;21.50;99.90;;;;;;4980385;28;20026;-74
2021/08/06 09:10:58;;;;;;;1.05;0.35;;;21.50;99.90;;;;;;4996955;28;20497;-75
2021/08/06 09:13:26;;;;;;;2.65;0.50;;;21.70;99.90;;;;;;4979521;28;20482;-74
2021/08/06 09:15:57;;;;;;;1.42;0.63;;;21.80;99.90;;;;;;4979706;28;20027;-74
2021/08/06 09:18:37;;;;;;;0.47;0.30;;;21.80;99.90;;;;;;4997557;28;20048;-73
2021/08/06 09:21:15;;;;;;;0.38;0.20;;;21.90;99.90;;;;;;4979348;28;20027;-73
2021/08/06 09:23:49;;;;;;;1.45;0.30;;;21.90;99.90;;;;;;4996599;28;20590;-73
2021/08/06 09:26:26;;;;;;;1.77;0.22;;;21.80;99.90;;;;;;4996357;28;20397;-73
2021/08/06 09:29:11;;;;;;;0.73;0.30;;;22.10;99.90;;;;;;4986951;28;20030;-73
2021/08/06 09:31:43;;;;;;;0.40;0.40;;;22.40;99.90;;;;;;5001785;28;20034;-72
2021/08/06 09:34:19;;;;;;;0.70;0.50;;;22.40;99.90;;;;;;4999645;28;20041;-74
2021/08/06 09:37:07;;;;;;;1.38;0.52;;;22.20;99.90;;;;;;4994732;28;20098;-74
2021/08/06 09:39:39;;;;;;;1.08;0.52;;;22.20;99.90;;;;;;5015360;28;20034;-73
2021/08/06 09:42:14;;;;;;;1.52;0.73;;;22.20;99.90;;;;;;4998957;28;20038;-73
2021/08/06 09:44:39;;;;;;;0.73;0.47;;;21.90;99.90;;;;;;4990722;28;20026;-76
2021/08/06 09:47:20;;;;;;;0.63;0.45;;;21.80;99.90;;;;;;4997012;28;20598;-74
2021/08/06 09:49:48;;;;;;;0.98;0.55;;;21.90;99.90;;;;;;4998689;28;20027;-74
2021/08/06 09:52:14;;;;;;;0.90;0.50;;;22.00;99.90;;;;;;5003762;28;20030;-74
2021/08/06 09:54:40;;;;;;;0.60;0.50;;;21.80;99.90;;;;;;4992213;28;20037;-75
2021/08/06 09:57:11;;;;;;;0.73;0.40;;;21.80;99.90;;;;;;5005325;28;20033;-73
2021/08/06 09:59:37;;;;;;;3.22;0.85;;;21.50;99.90;;;;;;4998552;28;20101;-75
2021/08/06 10:02:18;;;;;;;2.65;0.73;;;21.70;99.90;;;;;;4995988;28;20041;-74
2021/08/06 10:04:57;;;;;;;1.50;0.93;;;22.10;99.90;;;;;;4996781;28;20109;-74
2021/08/06 10:07:24;;;;;;;0.85;0.55;;;22.10;99.90;;;;;;4995613;28;20525;-74
2021/08/06 10:09:50;;;;;;;0.75;0.60;;;22.30;99.90;;;;;;4995436;28;20402;-74
2021/08/06 10:12:16;;;;;;;2.15;0.60;;;22.20;99.90;;;;;;4978098;28;20037;-73
2021/08/06 10:14:42;;;;;;;1.17;0.85;;;22.20;99.90;;;;;;4995065;28;20031;-75
2021/08/06 10:17:10;;;;;;;0.70;0.60;;;22.30;99.90;;;;;;4995469;28;20035;-74
2021/08/06 10:19:35;;;;;;;0.98;0.40;;;22.20;99.90;;;;;;4995124;28;20026;-75
2021/08/06 10:22:01;;;;;;;1.23;0.50;;;22.00;99.90;;;;;;4995235;28;20500;-74
2021/08/06 10:24:27;;;;;;;1.40;0.60;;;21.90;99.90;;;;;;4977502;28;20064;-73
2021/08/06 10:26:54;;;;;;;1.58;0.50;;;21.80;99.90;;;;;;4995323;28;20053;-74
2021/08/06 10:29:21;;;;;;;1.95;0.77;;;21.70;99.90;;;;;;4999051;28;20311;-74
2021/08/06 10:32:07;;;;;;;1.15;1.05;;;21.90;99.90;;;;;;4996382;28;20041;-74
2021/08/06 10:34:33;;;;;;;0.85;0.77;;;22.00;99.90;;;;;;4993847;28;20054;-74
2021/08/06 10:36:58;;;;;;;1.83;0.77;;;22.00;99.90;;;;;;4994632;28;20058;-74
2021/08/06 10:39:29;;;;;;;0.80;0.73;;;22.10;99.90;;;;;;4976331;28;20413;-74
2021/08/06 10:41:56;;;;;;;2.60;0.50;;;22.30;99.90;;;;;;4993055;28;20081;-75
2021/08/06 10:44:22;;;;;;;0.80;0.70;;;22.10;99.90;;;;;;4993968;28;20474;-75
2021/08/06 10:46:58;;;;;;;1.13;0.63;;;21.90;99.90;;;;;;4993769;28;20026;-75
2021/08/06 10:49:25;;;;;;;0.98;0.63;;;21.90;99.90;;;;;;4993815;28;20513;-75
2021/08/06 10:52:15;;;;;;;1.05;0.70;;;22.10;99.90;;;;;;4976822;28;20026;-75
2021/08/06 10:54:40;;;;;;;1.25;0.65;;;22.20;99.90;;;;;;4976255;28;20026;-73
2021/08/06 10:57:16;;;;;;;1.17;0.57;;;22.30;99.90;;;;;;4972489;28;20073;-73
2021/08/06 10:59:43;;;;;;;3.60;0.57;;;22.10;99.90;;;;;;4993926;28;20086;-75
2021/08/06 11:02:33;;;;;;;0.55;0.38;;;22.10;99.90;;;;;;4975425;28;20030;-72
2021/08/06 11:05:00;;;;;;;1.00;0.70;;;22.40;99.90;;;;;;4975688;28;20109;-74
2021/08/06 11:07:37;;;;;;;1.17;0.52;;;22.40;99.90;;;;;;4993481;28;20170;-74
2021/08/06 11:10:04;;;;;;;3.42;0.60;;;22.30;99.90;;;;;;4986094;28;20026;-74
2021/08/06 11:12:31;;;;;;;0.70;0.55;;;22.40;99.90;;;;;;4993465;28;20038;-73
2021/08/06 11:15:01;;;;;;;1.77;0.55;;;22.00;99.90;;;;;;4993633;28;20532;-74
2021/08/06 11:17:45;;;;;;;1.40;0.70;;;21.90;99.90;;;;;;4993246;28;20037;-74
2021/08/06 11:20:19;;;;;;;1.23;0.70;;;21.40;99.90;;;;;;4976479;28;20026;-73
2021/08/06 11:22:48;;;;;;;0.75;0.40;;;20.90;99.90;;;;;;4993619;28;20031;-74
2021/08/06 11:25:24;;;;;;;1.75;0.80;;;20.80;99.90;;;;;;4993276;28;20461;-74
2021/08/06 11:27:52;;;;;;;0.82;0.60;;;21.10;99.90;;;;;;4993381;28;20022;-74
2021/08/06 11:30:35;;;;;;;1.75;1.02;;;21.80;99.90;;;;;;4992892;28;20046;-75
2021/08/06 11:33:08;;;;;;;1.27;0.50;;;22.00;99.90;;;;;;4974844;28;20042;-75
2021/08/06 11:35:43;;;;;;;2.10;0.52;;;22.40;99.90;;;;;;4987635;28;20092;-73
2021/08/06 11:38:10;;;;;;;2.45;0.70;;;22.30;99.90;;;;;;4993159;28;20023;-74
2021/08/06 11:40:40;;;;;;;2.60;0.65;;;22.30;99.90;;;;;;4993006;28;20026;-75
2021/08/06 11:43:23;;;;;;;1.65;0.93;;;22.60;99.90;;;;;;4993490;28;20558;-75
2021/08/06 11:45:52;;;;;;;1.92;0.63;;;22.80;99.90;;;;;;4988158;28;20026;-74
2021/08/06 11:48:18;;;;;;;1.25;0.57;;;23.20;99.90;;;;;;4993250;28;20034;-75
2021/08/06 11:50:47;;;;;;;1.80;0.50;;;23.50;99.90;;;;;;4991116;28;20105;-75
2021/08/06 11:53:25;;;;;;;1.60;0.40;;;23.50;99.90;;;;;;4992984;28;20038;-77
2021/08/06 11:55:56;;;;;;;0.43;0.30;;;23.70;99.90;;;;;;4985909;28;20394;-75
2021/08/06 11:58:32;;;;;;;0.98;0.50;;;23.90;99.90;;;;;;4993735;28;20054;-75
2021/08/06 12:00:58;;;;;;;0.70;0.52;;;24.30;99.90;;;;;;4979608;28;20022;-75
2021/08/06 12:03:24;;;;;;;1.17;0.60;;;24.20;99.90;;;;;;4986422;28;20379;-76
2021/08/06 12:05:55;;;;;;;1.55;0.30;;;23.60;99.90;;;;;;4975960;28;20058;-74
2021/08/06 12:08:23;;;;;;;0.57;0.30;;;23.40;99.90;;;;;;4993339;28;20113;-74
2021/08/06 12:11:08;;;;;;;0.50;0.40;;;23.60;99.90;;;;;;4993644;28;20038;-75
2021/08/06 12:13:36;;;;;;;1.02;0.52;;;23.70;99.90;;;;;;4986482;28;20037;-75
2021/08/06 12:16:13;;;;;;;0.85;0.40;;;24.00;99.90;;;;;;4993591;28;20030;-73
2021/08/06 12:18:45;;;;;;;1.65;0.60;;;24.30;99.90;;;;;;4986431;28;20022;-74
2021/08/06 12:21:14;;;;;;;3.30;0.55;;;24.00;99.90;;;;;;4993696;28;20366;-75
2021/08/06 12:23:44;;;;;;;0.75;0.38;;;24.20;99.90;;;;;;4975669;28;20028;-74
2021/08/06 12:26:14;;;;;;;1.13;0.60;;;24.60;99.90;;;;;;4967926;28;20041;-75
2021/08/06 12:28:46;;;;;;;1.27;0.63;;;24.60;99.90;;;;;;4992220;28;20026;-74
2021/08/06 12:31:18;;;;;;;0.88;0.70;;;24.80;99.90;;;;;;4992487;28;20038;-74
2021/08/06 12:33:46;;;;;;;2.15;0.77;;;24.40;99.90;;;;;;4993590;28;20085;-74
2021/08/06 12:36:20;;;;;;;0.35;0.30;;;24.00;99.60;;;;;;4993445;28;20467;-73
2021/08/06 12:38:49;;;;;;;0.75;0.45;;;23.60;99.90;;;;;;4994526;28;20018;-74
2021/08/06 12:41:30;;;;;;;0.95;0.30;;;23.40;99.80;;;;;;5002959;28;20029;-73
2021/08/06 12:44:17;;;;;;;0.65;0.30;;;23.00;99.90;;;;;;5002113;28;20014;-73
2021/08/06 12:47:18;;;;;;;1.52;0.50;;;23.20;99.90;;;;;;4977133;28;20034;-73
2021/08/06 12:50:00;;;;;;;1.00;0.60;;;22.90;99.80;;;;;;4993194;28;20063;-74
2021/08/06 12:52:31;;;;;;;0.70;0.50;;;22.70;99.90;;;;;;4993053;28;20038;-74
2021/08/06 12:55:13;;;;;;;1.55;0.50;;;23.00;99.90;;;;;;4992994;28;20019;-74